Time;durP1;ratioP1;P1;durP2;ratioP2;P2;SDS_P1;SDS_P2;PMS_P1;PMS_P2;Temp;Humidity;BMP_temperature;BMP_pressure;BME280_temperature;BME280_humidity;BME280_pressure;Samples;Min_cycle;Max_cycle;Signal;HPM_P1;HPM_P2
2022/04/22 00:00:40;;;;;;;12.30;6.70;;;11.50;99.90;;;;;;5134192;27;20375;-73
2022/04/22 00:03:07;;;;;;;11.40;6.23;;;11.50;99.90;;;;;;5133318;27;20038;-73
2022/04/22 00:05:34;;;;;;;14.87;6.90;;;11.50;99.90;;;;;;5133138;27;20458;-74
2022/04/22 00:08:00;;;;;;;9.93;6.40;;;11.50;99.90;;;;;;5133669;27;20606;-73
2022/04/22 00:10:26;;;;;;;13.70;6.47;;;11.40;99.90;;;;;;5133768;27;20325;-74
2022/04/22 00:12:51;;;;;;;15.43;6.90;;;11.30;99.90;;;;;;5133188;27;20047;-74
2022/04/22 00:15:17;;;;;;;12.90;6.93;;;11.30;99.90;;;;;;5133917;27;20043;-74
2022/04/22 00:17:43;;;;;;;12.83;7.03;;;11.30;99.90;;;;;;5133840;27;20129;-74
2022/04/22 00:20:11;;;;;;;12.40;7.37;;;11.20;99.90;;;;;;5133024;27;20140;-73
2022/04/22 00:22:40;;;;;;;12.83;6.60;;;11.20;99.90;;;;;;5133868;27;20275;-73
2022/04/22 00:25:10;;;;;;;13.47;6.50;;;11.10;99.90;;;;;;5134165;27;20284;-73
2022/04/22 00:27:37;;;;;;;13.60;6.23;;;11.20;99.90;;;;;;5133815;27;20364;-73
2022/04/22 00:30:06;;;;;;;11.60;5.83;;;11.10;99.90;;;;;;5133985;27;20281;-73
2022/04/22 00:32:33;;;;;;;12.60;6.37;;;11.10;99.90;;;;;;5136774;27;20277;-74
2022/04/22 00:35:00;;;;;;;14.23;6.43;;;11.20;99.90;;;;;;5138395;27;20272;-74
2022/04/22 00:37:25;;;;;;;14.63;7.83;;;11.10;99.90;;;;;;5138172;27;20276;-73
2022/04/22 00:39:51;;;;;;;15.10;6.80;;;11.10;99.90;;;;;;5137284;27;20656;-73
2022/04/22 00:42:17;;;;;;;12.40;7.17;;;11.10;99.90;;;;;;5137988;27;20055;-73
2022/04/22 00:44:42;;;;;;;16.03;7.10;;;11.10;99.90;;;;;;5137198;27;20051;-73
2022/04/22 00:47:08;;;;;;;14.23;7.03;;;11.00;99.90;;;;;;5138230;27;20174;-73
2022/04/22 00:49:34;;;;;;;11.53;6.67;;;11.00;99.90;;;;;;5136629;27;20047;-73
2022/04/22 00:52:02;;;;;;;15.70;6.90;;;11.00;99.90;;;;;;5138061;27;20047;-73
2022/04/22 00:54:30;;;;;;;13.20;7.50;;;11.00;99.90;;;;;;5137881;27;20666;-73
2022/04/22 00:56:56;;;;;;;12.17;7.53;;;10.90;99.90;;;;;;5138150;27;20287;-73
2022/04/22 00:59:23;;;;;;;13.47;7.70;;;10.80;99.90;;;;;;5137555;27;20364;-73
2022/04/22 01:01:48;;;;;;;13.47;8.47;;;10.90;99.90;;;;;;5137749;27;20345;-73
2022/04/22 01:09:49;;;;;;;13.87;7.63;;;10.80;99.90;;;;;;5137528;27;20632;-73
2022/04/22 01:12:16;;;;;;;16.63;7.23;;;10.80;99.90;;;;;;5136423;27;20275;-73
2022/04/22 01:14:41;;;;;;;14.40;7.70;;;10.80;99.90;;;;;;5137343;27;20325;-74
2022/04/22 01:17:08;;;;;;;14.80;7.87;;;10.70;99.90;;;;;;5137546;27;20277;-74
2022/04/22 01:19:34;;;;;;;12.67;7.57;;;10.70;99.90;;;;;;5137261;27;20044;-73
2022/04/22 01:22:00;;;;;;;16.03;7.60;;;10.60;99.90;;;;;;5137098;27;20756;-74
2022/04/22 01:24:27;;;;;;;15.03;6.93;;;10.70;99.90;;;;;;5137208;27;20329;-74
2022/04/22 01:26:57;;;;;;;11.00;7.77;;;10.60;99.90;;;;;;5137315;27;20277;-73
2022/04/22 01:29:23;;;;;;;15.13;7.83;;;10.60;99.90;;;;;;5137061;27;20288;-74
2022/04/22 01:31:49;;;;;;;13.87;7.90;;;10.50;99.90;;;;;;5137221;27;20364;-74
2022/04/22 01:34:15;;;;;;;15.90;8.50;;;10.50;99.90;;;;;;5137281;27;20317;-74
2022/04/22 01:36:41;;;;;;;13.73;7.50;;;10.40;99.90;;;;;;5136986;27;20305;-74
2022/04/22 01:39:07;;;;;;;13.93;8.00;;;10.40;99.90;;;;;;5137143;27;20056;-74
2022/04/22 01:41:32;;;;;;;15.13;8.00;;;10.30;99.90;;;;;;5136818;27;20055;-73
2022/04/22 01:43:58;;;;;;;13.43;7.43;;;10.20;99.90;;;;;;5137169;27;20053;-73
2022/04/22 01:46:24;;;;;;;14.77;8.83;;;10.10;99.90;;;;;;5136719;27;20047;-74
2022/04/22 01:48:50;;;;;;;16.87;8.10;;;10.10;99.90;;;;;;5137014;27;20059;-73
2022/04/22 01:51:15;;;;;;;17.13;8.03;;;10.00;99.90;;;;;;5136886;27;20039;-74
2022/04/22 01:53:41;;;;;;;14.73;8.20;;;10.00;99.90;;;;;;5136591;27;20049;-74
2022/04/22 01:56:07;;;;;;;14.27;8.03;;;10.00;99.90;;;;;;5135900;27;20168;-74
2022/04/22 01:58:33;;;;;;;12.60;7.73;;;9.90;99.90;;;;;;5135614;27;20459;-73
2022/04/22 02:00:58;;;;;;;15.43;8.50;;;9.90;99.90;;;;;;5136897;27;20035;-73
2022/04/22 02:03:24;;;;;;;14.13;8.10;;;9.90;99.90;;;;;;5136688;27;20043;-73
2022/04/22 02:05:50;;;;;;;13.80;7.90;;;9.90;99.90;;;;;;5136542;27;20126;-73
2022/04/22 02:08:16;;;;;;;16.80;8.07;;;9.80;99.90;;;;;;5136566;27;20043;-73
2022/04/22 02:10:43;;;;;;;11.50;8.17;;;9.70;99.90;;;;;;5135385;27;20059;-74
2022/04/22 02:13:09;;;;;;;12.07;7.70;;;9.70;99.90;;;;;;5136544;27;20269;-73
2022/04/22 02:15:35;;;;;;;12.63;7.40;;;9.60;99.90;;;;;;5136306;27;20586;-73
2022/04/22 02:18:02;;;;;;;12.57;8.03;;;9.60;99.90;;;;;;5136061;27;20499;-74
2022/04/22 02:20:27;;;;;;;17.00;8.20;;;9.60;99.90;;;;;;5135707;27;20772;-74
2022/04/22 02:22:53;;;;;;;10.70;7.53;;;9.50;99.90;;;;;;5135397;27;20284;-74
2022/04/22 02:25:19;;;;;;;12.47;7.13;;;9.50;99.90;;;;;;5136285;27;20062;-73
2022/04/22 02:30:29;;;;;;;17.43;8.30;;;9.50;99.90;;;;;;5136453;27;20047;-74
2022/04/22 02:32:54;;;;;;;13.37;7.70;;;9.40;99.90;;;;;;5135366;27;20277;-73
2022/04/22 02:35:21;;;;;;;13.73;7.53;;;9.40;99.90;;;;;;5135859;27;20082;-74
2022/04/22 02:37:48;;;;;;;11.83;6.77;;;9.40;99.90;;;;;;5135828;27;20096;-73
2022/04/22 02:45:26;;;;;;;14.27;7.07;;;9.40;99.90;;;;;;5135816;27;20296;-74
2022/04/22 02:45:44;;;;;;;15.88;7.88;;;9.40;99.90;;;;;;5134552;27;20333;-73
2022/04/22 02:48:10;;;;;;;13.47;7.67;;;9.30;99.90;;;;;;5135541;27;20134;-73
2022/04/22 02:50:35;;;;;;;11.77;6.70;;;9.30;99.90;;;;;;5135418;27;20067;-74
2022/04/22 02:53:01;;;;;;;11.43;7.00;;;9.30;99.90;;;;;;5135593;27;20051;-73
2022/04/22 02:55:27;;;;;;;13.27;7.33;;;9.30;99.90;;;;;;5133932;27;20043;-74
2022/04/22 02:57:53;;;;;;;13.83;6.87;;;9.30;99.90;;;;;;5135356;27;20043;-74
2022/04/22 03:00:18;;;;;;;11.37;6.70;;;9.20;99.90;;;;;;5135600;27;20043;-73
2022/04/22 03:02:44;;;;;;;15.30;7.57;;;9.10;99.90;;;;;;5135641;27;20471;-74
2022/04/22 03:05:11;;;;;;;11.57;6.70;;;9.10;99.90;;;;;;5135476;27;20490;-73
2022/04/22 03:07:37;;;;;;;11.38;6.93;;;9.10;99.90;;;;;;5134299;27;20124;-73
2022/04/22 03:10:05;;;;;;;12.70;6.85;;;9.00;99.90;;;;;;5135320;27;20540;-73
2022/04/22 03:12:31;;;;;;;12.63;6.85;;;9.10;99.90;;;;;;5169107;27;20047;-73
2022/04/22 03:14:56;;;;;;;12.50;6.83;;;9.10;99.90;;;;;;5134972;27;20039;-73
2022/04/22 03:17:23;;;;;;;14.17;7.27;;;9.10;99.90;;;;;;5134414;27;20675;-73
2022/04/22 03:19:49;;;;;;;13.82;7.45;;;9.00;99.90;;;;;;5134803;27;20043;-73
2022/04/22 03:22:16;;;;;;;12.73;7.07;;;9.00;99.90;;;;;;5134086;27;20058;-73
2022/04/22 03:24:42;;;;;;;10.68;6.93;;;8.90;99.90;;;;;;5134834;27;20300;-74
2022/04/22 03:27:09;;;;;;;12.63;6.80;;;8.80;99.90;;;;;;5135115;27;20125;-74
2022/04/22 03:29:35;;;;;;;12.20;7.30;;;8.90;99.90;;;;;;5134675;27;20126;-73
2022/04/22 03:32:01;;;;;;;12.57;7.07;;;8.90;99.90;;;;;;5133661;27;20284;-74
2022/04/22 03:34:27;;;;;;;13.38;7.65;;;8.80;99.90;;;;;;5135027;27;20054;-74
2022/04/22 03:36:53;;;;;;;10.27;6.47;;;8.80;99.90;;;;;;5134207;27;20072;-74
2022/04/22 03:39:18;;;;;;;12.07;6.60;;;8.70;99.90;;;;;;5134556;27;20046;-74
2022/04/22 03:41:44;;;;;;;11.47;7.07;;;8.80;99.90;;;;;;5132898;27;20057;-73
2022/04/22 03:44:10;;;;;;;12.17;6.80;;;8.80;99.90;;;;;;5134644;27;20047;-74
2022/04/22 03:46:36;;;;;;;11.88;6.47;;;8.70;99.90;;;;;;5134431;27;20039;-74
2022/04/22 03:49:04;;;;;;;13.00;7.43;;;8.70;99.90;;;;;;5134689;27;20447;-74
2022/04/22 03:51:31;;;;;;;14.10;7.10;;;8.70;99.90;;;;;;5134875;27;20039;-73
2022/04/22 03:53:57;;;;;;;9.48;6.68;;;8.60;99.90;;;;;;5134367;27;20057;-74
2022/04/22 03:59:07;;;;;;;9.77;6.55;;;8.60;99.90;;;;;;5134422;27;20100;-74
2022/04/22 04:01:33;;;;;;;10.30;6.60;;;8.50;99.90;;;;;;5134800;27;20040;-74
2022/04/22 04:03:59;;;;;;;10.02;6.90;;;8.50;99.90;;;;;;5133200;27;20509;-74
2022/04/22 04:06:26;;;;;;;13.57;7.20;;;8.50;99.90;;;;;;5134005;27;20491;-74
2022/04/22 04:17:06;;;;;;;12.07;6.88;;;8.40;99.90;;;;;;5133250;27;20055;-74
2022/04/22 04:24:59;;;;;;;9.02;5.78;;;8.30;99.90;;;;;;5133926;27;20139;-74
2022/04/22 04:27:25;;;;;;;11.53;6.57;;;8.30;99.90;;;;;;5134010;27;20090;-74
2022/04/22 04:29:51;;;;;;;11.20;6.80;;;8.30;99.90;;;;;;5133780;28;20043;-74
2022/04/22 04:32:19;;;;;;;14.80;6.83;;;8.20;99.90;;;;;;5133979;28;20054;-74
2022/04/22 04:34:45;;;;;;;12.80;6.32;;;8.20;99.90;;;;;;5133793;28;20049;-74
2022/04/22 04:37:12;;;;;;;12.55;6.63;;;8.30;99.90;;;;;;5132762;28;20043;-74
2022/04/22 04:39:39;;;;;;;13.25;6.43;;;8.30;99.90;;;;;;5133964;27;20121;-74
2022/04/22 04:42:05;;;;;;;13.52;6.25;;;8.30;99.90;;;;;;5133502;27;20483;-74
2022/04/22 04:44:30;;;;;;;10.32;5.95;;;8.30;99.90;;;;;;5167809;27;20043;-74
2022/04/22 04:46:56;;;;;;;10.87;6.17;;;8.30;99.90;;;;;;5133993;28;20096;-74
2022/04/22 04:49:22;;;;;;;10.10;6.60;;;8.30;99.90;;;;;;5133891;28;20051;-74
2022/04/22 04:51:47;;;;;;;16.07;7.47;;;8.30;99.90;;;;;;5133596;28;20421;-74
2022/04/22 04:54:13;;;;;;;9.93;6.00;;;8.30;99.90;;;;;;5133824;28;20135;-74
2022/04/22 04:56:38;;;;;;;11.27;6.10;;;8.30;99.90;;;;;;5133782;28;20050;-74
2022/04/22 04:59:04;;;;;;;10.50;6.37;;;8.30;99.90;;;;;;5132374;28;20050;-74
2022/04/22 05:01:30;;;;;;;11.23;6.40;;;8.30;99.90;;;;;;5133947;28;20043;-74
2022/04/22 05:03:55;;;;;;;12.10;5.83;;;8.30;99.90;;;;;;5133816;28;20125;-74
2022/04/22 05:06:21;;;;;;;11.40;6.13;;;8.30;99.90;;;;;;5132848;28;20051;-74
2022/04/22 05:08:47;;;;;;;11.27;6.40;;;8.40;99.90;;;;;;5133494;28;20471;-74
2022/04/22 05:11:12;;;;;;;12.70;5.87;;;8.30;99.90;;;;;;5134067;28;20463;-75
2022/04/22 05:13:38;;;;;;;10.07;5.53;;;8.30;99.90;;;;;;5133692;28;20490;-74
2022/04/22 05:16:04;;;;;;;11.43;6.03;;;8.40;99.90;;;;;;5133685;28;20467;-74
2022/04/22 05:18:30;;;;;;;12.10;6.25;;;8.40;99.90;;;;;;5136222;27;20047;-74
2022/04/22 05:20:56;;;;;;;11.00;5.97;;;8.30;99.90;;;;;;5136184;27;20050;-74
2022/04/22 05:23:22;;;;;;;13.73;6.57;;;8.40;99.90;;;;;;5137461;27;20093;-74
2022/04/22 05:25:49;;;;;;;13.97;5.23;;;8.40;99.90;;;;;;5136269;27;20087;-74
2022/04/22 05:28:14;;;;;;;10.43;5.80;;;8.40;99.90;;;;;;5137320;27;20046;-74
2022/04/22 05:33:24;;;;;;;13.05;5.85;;;8.40;99.90;;;;;;5137607;27;20047;-74
2022/04/22 05:35:50;;;;;;;10.57;5.73;;;8.40;99.90;;;;;;5136928;27;20393;-74
2022/04/22 05:38:17;;;;;;;10.15;5.63;;;8.50;99.90;;;;;;5137028;27;20058;-74
2022/04/22 05:40:48;;;;;;;12.68;5.47;;;8.50;99.90;;;;;;5136940;27;20035;-74
2022/04/22 05:43:14;;;;;;;9.70;5.53;;;8.60;99.90;;;;;;5136694;27;20051;-74
2022/04/22 05:45:40;;;;;;;10.87;5.40;;;8.60;99.90;;;;;;5136888;27;20058;-73
2022/04/22 05:48:07;;;;;;;11.47;5.77;;;8.70;99.90;;;;;;5136800;27;20078;-73
2022/04/22 05:50:32;;;;;;;9.30;5.10;;;8.70;99.90;;;;;;5136803;27;20130;-74
2022/04/22 05:52:58;;;;;;;12.40;5.03;;;8.80;99.90;;;;;;5136608;27;20122;-74
2022/04/22 05:55:28;;;;;;;7.53;4.53;;;9.50;99.90;;;;;;5136511;27;20076;-74
2022/04/22 05:57:54;;;;;;;8.35;4.32;;;10.60;99.90;;;;;;5136697;27;20043;-74
2022/04/22 06:00:23;;;;;;;8.23;4.70;;;11.70;99.90;;;;;;5136652;27;20039;-74
2022/04/22 06:02:49;;;;;;;7.87;4.43;;;12.30;99.90;;;;;;5135538;27;20824;-74
2022/04/22 06:05:17;;;;;;;8.37;4.00;;;12.90;99.90;;;;;;5136093;27;20368;-74
2022/04/22 06:07:43;;;;;;;8.50;3.70;;;13.40;98.80;;;;;;5136548;27;20047;-73
2022/04/22 06:12:55;;;;;;;8.27;4.10;;;14.50;93.00;;;;;;5136366;27;20628;-74
2022/04/22 06:15:22;;;;;;;8.73;3.87;;;14.80;88.40;;;;;;5136158;27;20276;-74
2022/04/22 06:17:48;;;;;;;6.53;4.03;;;15.20;94.30;;;;;;5136415;27;20272;-73
2022/04/22 06:20:14;;;;;;;6.33;4.03;;;15.60;75.10;;;;;;5136100;27;20609;-73
2022/04/22 06:22:40;;;;;;;5.97;3.43;;;;;;;;;;5136301;27;20308;-73
2022/04/22 06:25:09;;;;;;;8.07;3.73;;;16.40;72.70;;;;;;5135138;27;20752;-73
2022/04/22 06:27:38;;;;;;;7.27;3.93;;;17.00;66.00;;;;;;5136174;27;20273;-74
2022/04/22 06:30:14;;;;;;;7.47;3.47;;;16.90;63.00;;;;;;5134341;27;20624;-73
2022/04/22 06:32:42;;;;;;;5.80;3.60;;;16.90;60.90;;;;;;5136222;27;20737;-73
2022/04/22 06:35:09;;;;;;;7.70;3.53;;;16.80;60.90;;;;;;5135885;27;20632;-73
2022/04/22 06:37:37;;;;;;;5.60;3.10;;;17.00;59.20;;;;;;5136077;27;20617;-73
2022/04/22 06:45:46;;;;;;;6.47;3.17;;;;;;;;;;5135924;27;20360;-74
2022/04/22 06:48:19;;;;;;;6.40;2.93;;;17.90;55.90;;;;;;5135618;27;20047;-73
2022/04/22 06:50:46;;;;;;;8.07;3.10;;;17.90;56.50;;;;;;5136051;27;20035;-74
2022/04/22 06:53:14;;;;;;;6.53;2.83;;;18.30;55.00;;;;;;5135554;27;20043;-73
2022/04/22 06:55:40;;;;;;;7.23;3.20;;;18.40;54.00;;;;;;5134743;27;20486;-73
2022/04/22 06:58:12;;;;;;;7.10;3.00;;;18.70;68.30;;;;;;5135430;27;20082;-74
2022/04/22 07:00:39;;;;;;;7.20;3.13;;;19.00;64.70;;;;;;5134535;27;20039;-73
2022/04/22 07:03:06;;;;;;;6.20;3.37;;;18.50;51.30;;;;;;5135357;27;20047;-74
2022/04/22 07:05:33;;;;;;;5.20;2.77;;;18.60;51.60;;;;;;5135702;27;20062;-73
2022/04/22 07:08:03;;;;;;;5.57;2.83;;;19.00;52.00;;;;;;5135297;27;20134;-74
2022/04/22 07:10:30;;;;;;;6.63;3.13;;;19.10;50.10;;;;;;5135366;27;20088;-73
2022/04/22 07:12:58;;;;;;;5.50;2.83;;;19.50;50.10;;;;;;5135312;27;20083;-73
2022/04/22 07:15:24;;;;;;;5.57;2.83;;;;;;;;;;5135382;27;20559;-73
2022/04/22 07:17:50;;;;;;;7.77;3.10;;;20.40;48.90;;;;;;5135348;27;20126;-73
2022/04/22 07:20:16;;;;;;;6.40;2.80;;;20.50;48.30;;;;;;5134881;27;20130;-73
2022/04/22 07:22:45;;;;;;;5.67;2.67;;;20.90;47.60;;;;;;5135313;27;20051;-73
2022/04/22 07:25:12;;;;;;;6.83;2.63;;;20.50;45.70;;;;;;5134912;27;20111;-73
2022/04/22 07:27:39;;;;;;;4.67;2.70;;;20.50;45.60;;;;;;5135083;27;20042;-73
2022/04/22 07:30:08;;;;;;;5.83;2.93;;;20.00;46.30;;;;;;5134896;27;20135;-73
2022/04/22 07:32:41;;;;;;;7.93;3.13;;;20.10;46.70;;;;;;5134934;27;20043;-73
2022/04/22 07:35:14;;;;;;;7.73;3.10;;;20.10;46.80;;;;;;5134816;27;20050;-73
2022/04/22 07:37:45;;;;;;;7.47;2.73;;;20.40;46.70;;;;;;5134885;27;20082;-73
2022/04/22 07:40:11;;;;;;;5.93;2.57;;;20.30;46.00;;;;;;5134224;27;20114;-73
2022/04/22 07:42:39;;;;;;;4.70;2.60;;;20.20;45.60;;;;;;5134550;27;20054;-73
2022/04/22 07:47:51;;;;;;;6.35;2.50;;;19.90;45.70;;;;;;5134457;27;20502;-74
2022/04/22 07:50:20;;;;;;;6.57;3.10;;;19.70;46.10;;;;;;5134382;27;20043;-73
2022/04/22 07:52:47;;;;;;;6.43;2.83;;;;;;;;;;5134570;27;20039;-73
2022/04/22 07:55:14;;;;;;;4.00;2.40;;;19.10;46.30;;;;;;5134294;27;20152;-73
2022/04/22 07:57:41;;;;;;;5.30;2.90;;;18.70;48.10;;;;;;5134764;27;20071;-73
2022/04/22 08:00:08;;;;;;;6.03;2.97;;;17.80;48.90;;;;;;5134127;27;20039;-73
2022/04/22 08:02:34;;;;;;;4.67;2.43;;;17.10;50.80;;;;;;5134168;27;20504;-73
2022/04/22 08:05:01;;;;;;;6.77;2.60;;;16.50;52.30;;;;;;5134305;27;20104;-73
2022/04/22 08:07:26;;;;;;;4.73;2.40;;;16.20;53.70;;;;;;5133805;27;20406;-73
2022/04/22 08:09:52;;;;;;;6.67;2.80;;;15.80;54.50;;;;;;5134363;27;20045;-72
2022/04/22 08:12:21;;;;;;;5.80;2.80;;;15.50;55.60;;;;;;5134102;27;20058;-72
2022/04/22 08:14:47;;;;;;;5.73;2.67;;;15.30;57.20;;;;;;5134346;27;20130;-73
2022/04/22 08:17:13;;;;;;;10.03;3.17;;;15.20;57.90;;;;;;5134041;27;20086;-73
2022/04/22 08:19:39;;;;;;;7.80;2.90;;;15.10;58.10;;;;;;5133838;27;20075;-73
2022/04/22 08:22:04;;;;;;;7.87;3.20;;;15.10;58.90;;;;;;5134179;27;20036;-73
2022/04/22 08:24:30;;;;;;;8.70;2.80;;;15.10;59.60;;;;;;5134148;27;20135;-73
2022/04/22 08:26:57;;;;;;;7.30;2.90;;;15.00;60.50;;;;;;5134176;27;20051;-73
2022/04/22 08:29:22;;;;;;;6.47;2.70;;;14.80;61.10;;;;;;5133925;27;20043;-73
2022/04/22 08:31:51;;;;;;;4.97;2.50;;;14.70;62.20;;;;;;5134136;27;20273;-73
2022/04/22 08:34:16;;;;;;;7.13;2.90;;;14.70;63.00;;;;;;5133774;27;20487;-72
2022/04/22 08:36:43;;;;;;;5.90;2.40;;;14.80;63.40;;;;;;5134010;28;20325;-72
2022/04/22 08:39:09;;;;;;;9.03;2.90;;;14.80;63.40;;;;;;5133849;27;20051;-73
2022/04/22 08:41:37;;;;;;;5.17;2.83;;;14.70;63.20;;;;;;5134020;28;20307;-73
2022/04/22 08:44:05;;;;;;;5.97;2.43;;;14.60;62.60;;;;;;5134173;27;20035;-72
2022/04/22 08:52:03;;;;;;;10.57;2.87;;;14.50;66.20;;;;;;5132979;27;20280;-74
2022/04/22 08:54:30;;;;;;;5.83;2.57;;;14.60;65.70;;;;;;5137809;27;20628;-73
2022/04/22 08:56:56;;;;;;;7.70;2.60;;;14.60;66.00;;;;;;5137853;27;20678;-72
2022/04/22 08:59:22;;;;;;;7.83;2.60;;;14.60;66.70;;;;;;5136560;27;20333;-72
2022/04/22 09:01:48;;;;;;;6.87;2.90;;;14.50;67.60;;;;;;5136683;27;20242;-73
2022/04/22 09:04:14;;;;;;;7.10;2.57;;;14.50;69.40;;;;;;5137660;27;20071;-72
2022/04/22 09:06:40;;;;;;;8.57;2.83;;;14.50;69.40;;;;;;5138127;27;20736;-74
2022/04/22 09:09:06;;;;;;;7.97;2.70;;;14.50;68.70;;;;;;5137712;27;20390;-72
2022/04/22 09:11:37;;;;;;;8.60;2.70;;;14.60;69.90;;;;;;5137466;27;20284;-72
2022/04/22 09:14:04;;;;;;;7.87;3.27;;;14.70;68.00;;;;;;5137532;27;20554;-73
2022/04/22 09:16:29;;;;;;;6.03;2.60;;;14.60;68.20;;;;;;5136378;27;20283;-73
2022/04/22 09:19:01;;;;;;;5.97;2.17;;;14.50;69.10;;;;;;5137540;27;20268;-73
2022/04/22 09:21:27;;;;;;;7.20;2.70;;;14.60;67.90;;;;;;5137229;27;20049;-73
2022/04/22 09:23:53;;;;;;;7.47;2.40;;;14.50;69.30;;;;;;5137705;27;20300;-73
2022/04/22 09:26:22;;;;;;;8.07;2.40;;;14.60;69.30;;;;;;5137328;27;20625;-74
2022/04/22 09:28:57;;;;;;;7.00;2.43;;;14.70;66.20;;;;;;5137538;27;20276;-73
2022/04/22 09:31:25;;;;;;;7.43;2.77;;;14.70;67.40;;;;;;5136098;27;20289;-73
2022/04/22 09:33:51;;;;;;;9.00;2.77;;;14.70;67.10;;;;;;5137566;27;20722;-74
2022/04/22 09:45:06;;;;;;;9.67;2.50;;;14.70;68.00;;;;;;5137115;27;20763;-73
2022/04/22 09:47:35;;;;;;;5.63;2.40;;;14.80;65.20;;;;;;5118855;27;20280;-73
2022/04/22 09:50:10;;;;;;;7.70;2.60;;;14.70;64.50;;;;;;5136133;27;20628;-73
2022/04/22 09:52:36;;;;;;;5.72;2.42;;;14.70;66.40;;;;;;5136767;27;20742;-73
2022/04/22 09:55:08;;;;;;;6.57;2.67;;;14.80;66.30;;;;;;5136808;27;20088;-73
2022/04/22 09:57:58;;;;;;;8.80;2.40;;;14.90;65.00;;;;;;5136558;27;20379;-74
2022/04/22 10:00:30;;;;;;;6.43;2.30;;;14.90;64.60;;;;;;5136508;27;20292;-73
2022/04/22 10:02:56;;;;;;;7.67;2.27;;;14.90;63.70;;;;;;5135064;27;20636;-73
2022/04/22 10:05:24;;;;;;;5.07;2.23;;;15.00;63.00;;;;;;5135591;27;20674;-73
2022/04/22 10:07:57;;;;;;;6.73;2.40;;;15.10;63.30;;;;;;5136708;27;20276;-73
2022/04/22 10:10:35;;;;;;;6.37;2.37;;;15.00;62.70;;;;;;5136305;27;20712;-73
2022/04/22 10:13:04;;;;;;;4.93;2.40;;;15.00;63.30;;;;;;5136537;27;20275;-73
2022/04/22 10:15:32;;;;;;;8.97;2.67;;;15.10;62.30;;;;;;5136243;27;20276;-73
2022/04/22 10:17:59;;;;;;;6.80;2.60;;;15.10;62.90;;;;;;5136333;27;20288;-73
2022/04/22 10:20:26;;;;;;;5.47;2.03;;;15.10;62.60;;;;;;5136062;27;20406;-73
2022/04/22 10:22:52;;;;;;;6.73;3.10;;;15.10;63.70;;;;;;5136278;27;20295;-73
2022/04/22 10:25:19;;;;;;;7.60;2.37;;;15.20;61.40;;;;;;5136156;27;20281;-73
2022/04/22 10:27:46;;;;;;;4.50;2.50;;;15.20;61.80;;;;;;5136552;27;20283;-73
2022/04/22 10:30:14;;;;;;;5.53;2.50;;;15.30;62.00;;;;;;5136232;27;20305;-73
2022/04/22 10:32:41;;;;;;;4.67;2.53;;;15.30;61.60;;;;;;5135903;27;20377;-73
2022/04/22 10:35:09;;;;;;;8.37;2.37;;;15.30;61.70;;;;;;5136342;27;20272;-73
2022/04/22 10:37:38;;;;;;;5.87;2.30;;;15.30;61.30;;;;;;5135783;27;20337;-73
2022/04/22 10:40:16;;;;;;;6.73;3.00;;;15.30;61.80;;;;;;5135872;27;20279;-73
2022/04/22 10:42:43;;;;;;;9.90;2.87;;;15.40;62.30;;;;;;5135916;27;20288;-73
2022/04/22 10:47:55;;;;;;;6.13;2.88;;;15.50;62.60;;;;;;5135911;27;20277;-73
2022/04/22 10:50:27;;;;;;;6.90;3.10;;;15.50;63.20;;;;;;5135543;27;20127;-73
2022/04/22 10:53:09;;;;;;;6.20;3.00;;;15.60;63.10;;;;;;5135760;27;20351;-73
2022/04/22 10:55:39;;;;;;;7.10;3.00;;;15.60;62.70;;;;;;5135510;27;20269;-73
2022/04/22 10:58:17;;;;;;;7.00;3.30;;;15.60;63.10;;;;;;5135759;27;20277;-73
2022/04/22 11:00:46;;;;;;;7.77;2.93;;;15.60;62.50;;;;;;5135210;27;20301;-73
2022/04/22 11:03:15;;;;;;;9.63;2.67;;;15.60;62.80;;;;;;5135594;27;20355;-73
2022/04/22 11:05:48;;;;;;;6.67;3.10;;;15.70;62.50;;;;;;5132050;27;20770;-73
2022/04/22 11:08:29;;;;;;;6.83;3.00;;;15.70;63.10;;;;;;5128935;27;20304;-74
2022/04/22 11:10:54;;;;;;;7.93;3.13;;;15.80;62.20;;;;;;5115914;27;20614;-74
2022/04/22 11:13:29;;;;;;;6.50;2.60;;;15.70;62.90;;;;;;5114744;28;20284;-74
2022/04/22 11:16:28;;;;;;;6.18;3.00;;;15.80;62.70;;;;;;5120746;27;20043;-71
2022/04/22 11:19:11;;;;;;;8.60;4.03;;;15.80;62.50;;;;;;5130954;27;20410;-73
2022/04/22 11:21:37;;;;;;;10.77;3.30;;;15.90;63.60;;;;;;5134329;27;20289;-74
2022/04/22 11:24:15;;;;;;;6.70;3.20;;;15.90;61.50;;;;;;5134976;27;20284;-73
2022/04/22 11:26:42;;;;;;;8.03;3.03;;;15.90;61.70;;;;;;5134716;27;20501;-73
2022/04/22 11:29:09;;;;;;;7.47;3.00;;;15.90;61.40;;;;;;5135109;27;20280;-73
2022/04/22 11:31:35;;;;;;;5.97;2.97;;;16.00;61.10;;;;;;5134750;27;20281;-73
2022/04/22 11:34:11;;;;;;;7.63;3.30;;;16.00;60.20;;;;;;5135209;27;20453;-73
2022/04/22 11:36:46;;;;;;;7.30;3.60;;;15.90;61.70;;;;;;5134733;27;20651;-73
2022/04/22 11:39:17;;;;;;;6.45;3.55;;;16.00;61.60;;;;;;5134894;27;20285;-74
2022/04/22 11:41:58;;;;;;;6.20;3.00;;;16.00;62.20;;;;;;5134146;27;20055;-73
2022/04/22 11:44:25;;;;;;;7.33;3.20;;;16.00;62.40;;;;;;5133687;27;20405;-73
2022/04/22 11:46:51;;;;;;;8.63;3.60;;;16.10;61.90;;;;;;5134655;27;20291;-73
2022/04/22 11:49:18;;;;;;;7.87;3.80;;;16.10;62.80;;;;;;5134684;27;20733;-73
2022/04/22 11:51:44;;;;;;;6.33;3.40;;;16.10;61.30;;;;;;5133341;27;20373;-73
2022/04/22 11:54:09;;;;;;;7.97;3.40;;;16.20;62.00;;;;;;5133707;27;20711;-73
2022/04/22 11:56:35;;;;;;;7.20;3.57;;;;;;;;;;5134465;27;20437;-73
2022/04/22 11:59:02;;;;;;;7.30;3.27;;;;;;;;;;5134529;27;20134;-73
2022/04/22 12:08:00;;;;;;;10.45;3.85;;;;;;;;;;5134419;27;20357;-73
2022/04/22 12:10:00;;;;;;;8.37;3.73;;;;;;;;;;5134424;27;20054;-73
2022/04/22 12:12:28;;;;;;;11.67;3.70;;;;;;;;;;5134372;27;20289;-73
2022/04/22 12:15:16;;;;;;;7.17;4.03;;;;;;;;;;5134499;27;20277;-73
2022/04/22 12:17:42;;;;;;;8.10;3.40;;;;;;;;;;5134201;27;20268;-73
2022/04/22 12:20:10;;;;;;;6.37;3.77;;;;;;;;;;5133026;27;20363;-74
2022/04/22 12:22:36;;;;;;;7.40;3.30;;;;;;;;;;5133967;27;20358;-73
2022/04/22 12:25:12;;;;;;;8.57;3.80;;;;;;;;;;5134154;27;20367;-73
2022/04/22 12:27:39;;;;;;;10.70;3.93;;;;;;;;;;5133847;27;20291;-73
2022/04/22 12:30:08;;;;;;;8.07;4.20;;;;;;;;;;5134060;27;20329;-74
2022/04/22 12:32:36;;;;;;;7.20;3.57;;;;;;;;;;5133828;28;20296;-73
2022/04/22 12:35:12;;;;;;;11.40;4.00;;;;;;;;;;5134147;28;20292;-74
2022/04/22 12:37:46;;;;;;;5.93;3.30;;;16.70;76.20;;;;;;5133809;28;20306;-74
2022/04/22 12:40:14;;;;;;;7.05;3.58;;;16.70;76.50;;;;;;5134166;27;20273;-73
2022/04/22 12:42:40;;;;;;;8.70;3.87;;;16.60;58.00;;;;;;5133728;27;20489;-73
2022/04/22 12:53:41;;;;;;;7.13;3.23;;;16.90;58.60;;;;;;5133731;28;20276;-73
2022/04/22 12:56:09;;;;;;;5.10;3.07;;;17.00;57.20;;;;;;5132774;28;20280;-73
2022/04/22 12:58:57;;;;;;;8.70;3.57;;;17.00;56.60;;;;;;5133614;27;20285;-74
2022/04/22 13:01:28;;;;;;;8.33;3.67;;;17.00;55.50;;;;;;5133908;27;20610;-73
2022/04/22 13:03:59;;;;;;;6.77;3.60;;;17.00;55.60;;;;;;5133558;27;20280;-73
2022/04/22 13:06:43;;;;;;;7.47;3.23;;;17.00;56.10;;;;;;5133932;27;20304;-74
2022/04/22 13:09:10;;;;;;;10.90;3.73;;;17.00;56.50;;;;;;5133833;27;20308;-74
2022/04/22 13:11:36;;;;;;;8.60;3.40;;;17.10;57.00;;;;;;5133742;27;20617;-74
2022/04/22 13:14:04;;;;;;;7.03;4.03;;;17.10;56.50;;;;;;5134079;27;20611;-73
2022/04/22 13:16:30;;;;;;;9.50;3.90;;;16.90;55.80;;;;;;5132935;28;20288;-74
2022/04/22 13:18:56;;;;;;;9.47;4.13;;;17.00;55.90;;;;;;5133559;27;20054;-74
2022/04/22 13:21:22;;;;;;;8.13;3.50;;;17.00;55.90;;;;;;5133241;27;20770;-73
2022/04/22 13:23:47;;;;;;;8.77;3.93;;;17.00;56.80;;;;;;5133270;28;20368;-73
2022/04/22 13:26:13;;;;;;;8.27;4.10;;;17.00;56.60;;;;;;5132406;28;20126;-74
2022/04/22 13:28:39;;;;;;;8.03;3.80;;;17.10;56.60;;;;;;5133394;28;20043;-73
2022/04/22 13:31:05;;;;;;;11.17;4.50;;;;;;;;;;5133568;27;20497;-74
2022/04/22 13:33:34;;;;;;;8.80;3.77;;;17.10;67.20;;;;;;5133499;28;20043;-73
2022/04/22 13:36:01;;;;;;;9.53;4.60;;;17.10;68.60;;;;;;5132360;28;20292;-73
2022/04/22 13:38:28;;;;;;;9.97;4.50;;;;;;;;;;5134768;27;20383;-74
2022/04/22 13:40:54;;;;;;;7.30;4.10;;;17.30;90.60;;;;;;5136959;27;20043;-74
2022/04/22 13:43:20;;;;;;;7.50;3.97;;;;;;;;;;5136774;27;20349;-74
2022/04/22 13:53:58;;;;;;;11.43;5.13;;;17.50;56.80;;;;;;5136859;27;20047;-74
2022/04/22 13:56:24;;;;;;;11.83;5.20;;;17.60;57.40;;;;;;5136870;27;20364;-74
2022/04/22 13:58:49;;;;;;;8.77;4.80;;;17.60;56.90;;;;;;5136642;27;20062;-73
2022/04/22 14:01:15;;;;;;;7.53;4.60;;;17.70;56.60;;;;;;5137039;27;20111;-74
2022/04/22 14:03:41;;;;;;;11.47;4.23;;;17.70;56.60;;;;;;5118209;27;20043;-73
2022/04/22 14:06:06;;;;;;;9.77;4.40;;;17.50;56.90;;;;;;5136778;27;20092;-74
2022/04/22 14:08:33;;;;;;;10.60;5.40;;;17.50;57.20;;;;;;5135784;27;20129;-73
2022/04/22 14:10:59;;;;;;;9.87;4.90;;;17.40;57.20;;;;;;5136369;27;20047;-74
2022/04/22 14:13:26;;;;;;;10.17;4.70;;;17.60;57.30;;;;;;5135594;27;20047;-74
2022/04/22 14:15:52;;;;;;;9.27;4.97;;;17.60;56.70;;;;;;5136344;27;20169;-74